Time;durP1;ratioP1;P1;durP2;ratioP2;P2;SDS_P1;SDS_P2;PMS_P1;PMS_P2;Temp;Humidity;BMP_temperature;BMP_pressure;BME280_temperature;BME280_humidity;BME280_pressure;Samples;Min_cycle;Max_cycle;Signal;HPM_P1;HPM_P2
2023/04/18 07:12:34;;;;;;;3.27;2.77;;;14.50;52.60;;;;;;6071788;22;2061345;-72
2023/04/18 07:15:00;;;;;;;3.10;2.80;;;14.50;52.60;;;;;;6156868;23;20157;-72
2023/04/18 07:17:26;;;;;;;2.50;2.30;;;14.50;52.60;;;;;;6157025;23;20258;-73
2023/04/18 07:19:51;;;;;;;3.07;2.77;;;14.50;52.60;;;;;;6131164;23;20183;-71
2023/04/18 07:22:17;;;;;;;3.00;2.70;;;14.50;52.60;;;;;;6150959;23;20631;-70
2023/04/18 07:24:42;;;;;;;2.20;2.00;;;14.50;52.60;;;;;;6128030;23;20141;-70
2023/04/18 07:27:08;;;;;;;2.40;2.20;;;14.50;52.60;;;;;;6127339;23;20155;-70
2023/04/18 07:29:34;;;;;;;2.60;2.40;;;14.50;52.60;;;;;;6127554;23;20153;-67
2023/04/18 07:32:00;;;;;;;2.90;2.60;;;14.50;52.60;;;;;;6127433;23;20153;-68
2023/04/18 07:34:28;;;;;;;2.60;2.40;;;14.50;52.60;;;;;;6127760;23;20376;-68
2023/04/18 07:36:55;;;;;;;2.70;2.50;;;14.50;52.60;;;;;;6127373;23;20421;-68
2023/04/18 07:39:21;;;;;;;2.80;2.60;;;14.50;52.60;;;;;;6127421;23;20737;-68
2023/04/18 07:41:47;;;;;;;2.57;2.37;;;14.50;52.60;;;;;;6127368;23;20369;-68
2023/04/18 07:44:12;;;;;;;3.03;2.77;;;14.50;52.60;;;;;;6101200;23;20914;-68
2023/04/18 07:46:38;;;;;;;3.40;2.57;;;14.50;52.60;;;;;;6101576;23;20160;-68
2023/04/18 07:49:04;;;;;;;3.47;3.17;;;14.50;52.60;;;;;;6127513;23;20266;-68
2023/04/18 07:51:33;;;;;;;3.67;2.73;;;14.50;52.60;;;;;;6126860;23;20231;-68
2023/04/18 07:53:59;;;;;;;2.60;2.40;;;14.50;52.60;;;;;;6127163;23;20492;-68
2023/04/18 07:56:26;;;;;;;3.20;2.90;;;14.50;52.60;;;;;;6127409;23;21022;-69
2023/04/18 07:58:52;;;;;;;2.90;2.50;;;14.50;52.60;;;;;;6127277;23;20804;-69
2023/04/18 08:01:22;;;;;;;3.27;2.67;;;14.50;52.60;;;;;;6127407;23;20381;-73
2023/04/18 08:03:48;;;;;;;3.03;2.60;;;14.50;52.60;;;;;;6127137;23;20424;-69
2023/04/18 08:06:15;;;;;;;3.07;2.80;;;14.50;52.60;;;;;;6127445;23;20377;-69
2023/04/18 08:08:41;;;;;;;3.33;2.90;;;14.50;52.60;;;;;;6126919;23;20152;-67
2023/04/18 08:11:07;;;;;;;2.77;2.40;;;14.50;52.60;;;;;;6126848;23;20381;-72
2023/04/18 08:13:32;;;;;;;2.80;2.33;;;14.60;52.70;;;;;;6126660;23;20491;-73
2023/04/18 08:15:58;;;;;;;2.50;2.17;;;14.60;52.70;;;;;;6127250;23;20173;-72
2023/04/18 08:18:25;;;;;;;2.40;2.20;;;14.60;52.70;;;;;;6127217;23;20156;-72
2023/04/18 08:20:50;;;;;;;3.00;2.70;;;14.60;52.70;;;;;;6126928;23;20378;-73
2023/04/18 08:23:16;;;;;;;2.77;2.47;;;14.60;52.70;;;;;;6126856;23;20401;-73
2023/04/18 08:25:42;;;;;;;2.80;2.50;;;14.60;52.70;;;;;;6126773;23;20591;-73
2023/04/18 08:28:07;;;;;;;2.60;2.30;;;14.60;52.60;;;;;;6101198;23;20149;-73
2023/04/18 08:30:33;;;;;;;3.07;2.77;;;14.70;52.70;;;;;;6101062;23;20239;-72
2023/04/18 08:32:59;;;;;;;3.03;2.73;;;14.60;52.70;;;;;;6126713;23;20169;-73
2023/04/18 08:35:25;;;;;;;2.27;2.07;;;14.70;52.70;;;;;;6126762;23;20604;-73
2023/04/18 08:37:51;;;;;;;2.53;2.33;;;14.70;52.70;;;;;;6127447;23;20376;-69
2023/04/18 08:40:17;;;;;;;2.40;2.20;;;14.70;52.60;;;;;;6127190;23;20199;-69
2023/04/18 08:42:46;;;;;;;2.97;2.50;;;14.70;52.60;;;;;;6127161;23;20169;-69
2023/04/18 08:45:13;;;;;;;2.43;2.23;;;14.80;52.70;;;;;;6127617;23;20415;-69
2023/04/18 08:47:39;;;;;;;2.47;2.27;;;14.80;52.60;;;;;;6127588;23;20369;-68
2023/04/18 08:50:06;;;;;;;6.10;3.20;;;14.80;52.60;;;;;;6127245;23;20761;-73
2023/04/18 08:52:35;;;;;;;2.80;2.50;;;14.80;52.50;;;;;;6100655;23;20409;-73
2023/04/18 08:55:01;;;;;;;2.40;2.20;;;14.80;52.50;;;;;;6126353;23;20369;-73
2023/04/18 08:57:28;;;;;;;3.20;2.90;;;14.80;52.50;;;;;;6126862;23;20898;-73
2023/04/18 08:59:55;;;;;;;3.80;2.50;;;14.80;52.50;;;;;;6126601;23;20369;-68
2023/04/18 09:02:33;;;;;;;3.07;2.23;;;14.90;52.50;;;;;;6127352;23;20396;-67
2023/04/18 09:04:59;;;;;;;2.93;2.47;;;14.90;52.50;;;;;;6128890;23;20464;-68
2023/04/18 09:07:28;;;;;;;2.37;2.17;;;14.90;52.50;;;;;;6102948;23;20393;-68
2023/04/18 09:09:56;;;;;;;3.30;2.37;;;14.90;52.40;;;;;;6128628;23;20180;-67
2023/04/18 09:12:26;;;;;;;2.83;2.53;;;14.90;52.40;;;;;;6128084;23;20412;-67
2023/04/18 09:14:56;;;;;;;2.73;2.27;;;14.90;52.40;;;;;;6128715;23;20759;-68
2023/04/18 09:17:31;;;;;;;2.80;2.60;;;14.90;52.40;;;;;;6128469;23;20886;-68
2023/04/18 09:19:57;;;;;;;3.13;2.50;;;14.90;52.50;;;;;;6128628;23;20375;-68
2023/04/18 09:22:23;;;;;;;2.27;2.07;;;14.90;52.50;;;;;;6128610;23;20736;-67
2023/04/18 09:24:54;;;;;;;2.57;2.37;;;14.90;52.50;;;;;;6128601;23;20358;-67
2023/04/18 09:27:23;;;;;;;2.30;2.10;;;14.90;52.50;;;;;;6128698;23;20142;-67
2023/04/18 09:29:53;;;;;;;2.50;2.27;;;14.90;52.60;;;;;;6128862;23;20449;-70
2023/04/18 09:32:28;;;;;;;2.50;2.30;;;14.90;52.60;;;;;;6128703;23;20456;-70
2023/04/18 09:34:57;;;;;;;2.70;2.40;;;14.90;52.60;;;;;;6128738;23;20356;-70
2023/04/18 09:37:23;;;;;;;2.53;2.33;;;14.90;52.60;;;;;;6128395;23;20425;-70
2023/04/18 09:39:49;;;;;;;2.53;2.33;;;14.90;52.60;;;;;;6128334;23;20483;-70
2023/04/18 09:42:16;;;;;;;2.63;2.43;;;14.90;52.60;;;;;;6128359;23;20419;-70
2023/04/18 09:44:58;;;;;;;3.00;2.40;;;14.90;52.60;;;;;;6128174;23;20471;-69
2023/04/18 09:47:25;;;;;;;2.53;2.30;;;14.90;52.70;;;;;;6128465;23;20881;-69
2023/04/18 09:49:51;;;;;;;5.70;2.43;;;14.90;52.70;;;;;;6128207;23;20778;-69
2023/04/18 09:52:18;;;;;;;3.00;2.47;;;14.90;52.70;;;;;;6102760;23;20730;-69
2023/04/18 09:54:46;;;;;;;5.47;4.57;;;14.90;52.70;;;;;;6128414;23;20468;-70
2023/04/18 09:57:13;;;;;;;7.43;6.60;;;14.80;53.00;;;;;;6128358;23;20416;-72
2023/04/18 09:59:50;;;;;;;10.33;6.87;;;14.60;53.30;;;;;;6128350;23;20395;-67
2023/04/18 10:02:21;;;;;;;10.20;6.00;;;14.70;53.50;;;;;;6128480;23;20361;-67
2023/04/18 10:04:50;;;;;;;8.97;6.63;;;14.70;53.40;;;;;;6128717;23;20379;-69
2023/04/18 10:07:16;;;;;;;8.03;5.90;;;14.70;53.40;;;;;;6128341;23;20701;-69
2023/04/18 10:09:45;;;;;;;8.37;5.70;;;14.80;53.40;;;;;;6128394;23;20397;-69
2023/04/18 10:12:11;;;;;;;9.03;5.30;;;14.80;53.40;;;;;;6128627;23;20402;-69
2023/04/18 10:14:40;;;;;;;6.73;5.67;;;14.80;53.30;;;;;;6101903;23;20866;-70
2023/04/18 10:17:06;;;;;;;6.00;5.40;;;14.80;53.20;;;;;;6126680;23;20420;-70
2023/04/18 10:19:32;;;;;;;6.20;5.60;;;14.90;53.20;;;;;;6128069;23;20475;-69
2023/04/18 10:21:59;;;;;;;6.40;5.17;;;14.90;53.10;;;;;;6101852;23;20424;-69
2023/04/18 10:24:45;;;;;;;5.63;5.00;;;14.90;53.10;;;;;;6128321;23;20216;-69
2023/04/18 10:27:11;;;;;;;6.10;5.30;;;14.90;53.10;;;;;;6127979;23;20373;-69
2023/04/18 10:29:50;;;;;;;5.70;4.57;;;14.90;53.10;;;;;;6101886;23;20428;-69
2023/04/18 10:32:18;;;;;;;6.77;5.30;;;14.90;53.10;;;;;;6128310;23;20496;-69
2023/04/18 10:34:45;;;;;;;6.80;4.63;;;14.90;53.00;;;;;;6128253;23;20460;-69
2023/04/18 10:37:14;;;;;;;5.63;4.40;;;14.90;53.00;;;;;;6127957;23;20417;-69
2023/04/18 10:40:04;;;;;;;5.60;4.70;;;14.90;53.00;;;;;;6127850;23;20759;-69
2023/04/18 10:42:51;;;;;;;6.33;4.87;;;14.90;53.00;;;;;;6127772;23;20364;-69
2023/04/18 10:45:21;;;;;;;6.33;5.00;;;15.00;53.10;;;;;;6101892;23;20712;-69
2023/04/18 10:47:47;;;;;;;6.80;4.77;;;14.90;53.00;;;;;;6127903;23;20368;-69
2023/04/18 10:50:14;;;;;;;6.10;5.13;;;14.90;52.90;;;;;;6101645;23;20937;-69
2023/04/18 10:52:40;;;;;;;5.73;4.13;;;15.00;53.00;;;;;;6127628;23;20383;-69
2023/04/18 10:55:10;;;;;;;5.20;4.70;;;15.00;53.00;;;;;;6127675;23;20373;-69
2023/04/18 10:57:44;;;;;;;5.20;4.30;;;15.00;52.90;;;;;;6127991;23;20424;-70
2023/04/18 11:00:11;;;;;;;5.63;4.73;;;14.90;52.90;;;;;;6101601;23;20405;-69
2023/04/18 11:02:37;;;;;;;8.30;4.53;;;15.00;52.90;;;;;;6127464;23;20375;-70
2023/04/18 11:05:05;;;;;;;6.13;5.53;;;15.00;52.90;;;;;;6127566;23;20369;-71
2023/04/18 11:07:41;;;;;;;5.00;4.50;;;15.00;52.80;;;;;;6128157;23;20427;-70
2023/04/18 11:10:08;;;;;;;4.93;4.43;;;15.00;52.80;;;;;;6127674;23;20396;-70
2023/04/18 11:12:40;;;;;;;5.03;4.13;;;15.00;52.80;;;;;;6127832;23;20456;-70
2023/04/18 11:15:10;;;;;;;5.20;4.70;;;15.00;52.80;;;;;;6127840;23;20697;-70
2023/04/18 11:17:38;;;;;;;4.03;3.63;;;15.00;52.80;;;;;;6127277;23;20818;-70
2023/04/18 11:20:12;;;;;;;5.67;4.60;;;15.00;52.80;;;;;;6127394;23;20444;-70
2023/04/18 11:22:46;;;;;;;6.13;4.70;;;15.10;52.90;;;;;;6127323;23;20834;-72
2023/04/18 11:25:12;;;;;;;5.13;4.63;;;15.10;52.90;;;;;;6100958;23;20725;-72
2023/04/18 11:27:40;;;;;;;4.20;3.80;;;15.10;52.90;;;;;;6127282;23;20381;-73
2023/04/18 11:30:07;;;;;;;5.20;4.30;;;15.10;52.90;;;;;;6127207;23;20189;-73
2023/04/18 11:32:33;;;;;;;4.30;3.90;;;15.00;53.00;;;;;;6127610;23;20388;-72
2023/04/18 11:34:58;;;;;;;5.47;4.77;;;15.10;53.00;;;;;;6127383;23;20376;-72
2023/04/18 11:37:24;;;;;;;4.87;4.37;;;15.10;53.10;;;;;;6127108;23;20420;-73
2023/04/18 11:39:52;;;;;;;4.33;3.93;;;15.10;53.20;;;;;;6127259;23;20188;-73
2023/04/18 11:42:18;;;;;;;4.90;4.10;;;15.10;53.20;;;;;;6127062;23;20152;-73
2023/04/18 11:44:48;;;;;;;6.40;4.47;;;15.20;53.20;;;;;;6127367;23;20377;-72
2023/04/18 11:47:22;;;;;;;3.63;3.33;;;15.20;53.20;;;;;;6127497;23;20153;-72
2023/04/18 11:49:55;;;;;;;5.03;4.27;;;15.30;53.40;;;;;;6127115;23;20392;-73
2023/04/18 11:52:20;;;;;;;4.80;4.30;;;15.30;53.40;;;;;;6101042;23;20745;-73
2023/04/18 11:54:46;;;;;;;5.50;4.63;;;15.30;53.50;;;;;;6126999;23;20459;-73
2023/04/18 11:57:26;;;;;;;4.90;4.20;;;15.30;53.50;;;;;;6126806;23;20484;-73
2023/04/18 11:59:56;;;;;;;4.77;3.63;;;15.30;53.50;;;;;;6127268;23;20165;-73
2023/04/18 12:02:23;;;;;;;4.67;3.93;;;15.30;53.40;;;;;;6126913;23;20373;-73
2023/04/18 12:04:51;;;;;;;4.70;3.90;;;15.30;53.40;;;;;;6126955;23;20452;-72
2023/04/18 12:07:33;;;;;;;4.80;3.83;;;15.40;53.60;;;;;;6125265;23;20399;-71
2023/04/18 12:09:59;;;;;;;4.37;3.90;;;15.40;53.50;;;;;;6126851;23;20395;-71
2023/04/18 12:12:25;;;;;;;4.60;4.07;;;15.40;53.50;;;;;;6126868;23;20710;-72
2023/04/18 12:15:02;;;;;;;4.20;3.80;;;15.40;53.50;;;;;;6126769;23;20405;-73
2023/04/18 12:17:28;;;;;;;4.93;4.27;;;15.50;53.60;;;;;;6126917;23;20160;-73
2023/04/18 12:19:54;;;;;;;3.83;3.50;;;15.50;53.60;;;;;;6126822;23;20424;-73
2023/04/18 12:22:44;;;;;;;4.63;3.80;;;15.50;53.60;;;;;;6126682;23;20368;-73
2023/04/18 12:25:23;;;;;;;3.87;3.53;;;15.50;53.50;;;;;;6110029;23;20384;-73
2023/04/18 12:27:54;;;;;;;4.30;3.60;;;15.50;53.50;;;;;;6126936;23;20823;-72
2023/04/18 12:30:22;;;;;;;4.03;3.63;;;15.50;53.50;;;;;;6126558;23;20552;-72
2023/04/18 12:32:49;;;;;;;4.10;3.70;;;15.50;53.50;;;;;;6126788;23;20851;-72
2023/04/18 12:35:17;;;;;;;4.60;4.20;;;15.50;53.40;;;;;;6100737;23;20408;-72
2023/04/18 12:37:42;;;;;;;4.43;3.67;;;15.40;53.40;;;;;;6126447;23;20859;-72
2023/04/18 12:40:09;;;;;;;4.17;3.70;;;15.40;53.30;;;;;;6100167;23;20469;-67
2023/04/18 12:42:35;;;;;;;4.77;3.90;;;15.40;53.40;;;;;;6126724;23;20152;-67
2023/04/18 12:45:06;;;;;;;4.73;3.90;;;15.40;53.40;;;;;;6102141;23;20385;-67
2023/04/18 12:47:33;;;;;;;4.20;3.80;;;15.40;53.40;;;;;;6126875;23;20354;-67
2023/04/18 12:49:58;;;;;;;3.70;3.40;;;15.40;53.40;;;;;;6126455;23;20444;-67
2023/04/18 12:52:24;;;;;;;4.07;3.67;;;15.40;53.30;;;;;;6100720;23;20389;-67
2023/04/18 12:54:49;;;;;;;3.77;3.47;;;15.40;53.30;;;;;;6126974;23;20183;-67
2023/04/18 12:57:15;;;;;;;3.67;3.20;;;15.40;53.30;;;;;;6126538;23;20173;-67
2023/04/18 12:59:41;;;;;;;4.50;3.63;;;15.40;53.30;;;;;;6126677;23;20561;-67
2023/04/18 13:02:06;;;;;;;4.23;3.50;;;15.40;53.30;;;;;;6101384;23;20377;-68
2023/04/18 13:04:32;;;;;;;4.47;3.93;;;15.30;53.30;;;;;;6126747;23;20234;-68
2023/04/18 13:06:58;;;;;;;3.33;3.03;;;15.30;53.30;;;;;;6126660;23;20156;-68
2023/04/18 13:09:25;;;;;;;4.30;3.90;;;15.30;53.30;;;;;;6126527;23;20191;-67
2023/04/18 13:11:51;;;;;;;3.90;3.50;;;15.30;53.30;;;;;;6126764;23;20161;-67
2023/04/18 13:14:17;;;;;;;3.73;3.43;;;15.30;53.30;;;;;;6126404;23;20754;-68
2023/04/18 13:16:43;;;;;;;4.17;3.77;;;15.30;53.30;;;;;;6126937;23;20172;-68
2023/04/18 13:19:08;;;;;;;4.50;3.57;;;15.30;53.30;;;;;;6126569;23;20149;-68
2023/04/18 13:21:34;;;;;;;4.17;3.70;;;15.30;53.30;;;;;;6126359;23;20155;-73
2023/04/18 13:23:59;;;;;;;4.20;3.57;;;15.30;53.30;;;;;;6126876;23;20151;-73
2023/04/18 13:26:25;;;;;;;3.60;3.30;;;15.30;53.30;;;;;;6126440;23;20181;-68
2023/04/18 13:28:51;;;;;;;4.50;3.40;;;15.20;53.20;;;;;;6126517;23;20280;-69
2023/04/18 13:31:16;;;;;;;3.77;3.37;;;15.20;53.20;;;;;;6126329;23;20192;-69
2023/04/18 13:33:42;;;;;;;3.70;3.40;;;15.20;53.20;;;;;;6100727;23;20243;-69
2023/04/18 13:36:08;;;;;;;4.03;3.63;;;15.20;53.30;;;;;;6126316;23;20196;-69
2023/04/18 13:38:33;;;;;;;3.60;3.20;;;15.20;53.20;;;;;;6126499;23;20659;-68
2023/04/18 13:40:59;;;;;;;4.27;3.50;;;15.20;53.20;;;;;;6126521;23;20170;-69
2023/04/18 13:43:25;;;;;;;4.00;3.60;;;15.20;53.20;;;;;;6126583;23;20145;-68
2023/04/18 13:45:52;;;;;;;4.00;3.60;;;15.20;53.30;;;;;;6126880;23;20152;-68
2023/04/18 13:48:18;;;;;;;4.63;3.30;;;15.20;53.30;;;;;;6126684;23;20376;-70
2023/04/18 13:50:43;;;;;;;3.70;3.40;;;15.20;53.30;;;;;;6128095;23;20957;-71
2023/04/18 13:53:09;;;;;;;4.03;2.93;;;15.20;53.30;;;;;;6128265;23;20224;-71
2023/04/18 13:55:35;;;;;;;5.33;3.70;;;15.20;53.30;;;;;;6128279;23;20153;-70
2023/04/18 13:58:01;;;;;;;3.80;3.50;;;15.20;53.30;;;;;;6128144;23;20146;-70
2023/04/18 14:00:26;;;;;;;4.60;3.70;;;15.20;53.30;;;;;;6102304;23;20408;-70
2023/04/18 14:02:54;;;;;;;4.53;3.57;;;15.20;53.30;;;;;;6128171;23;20235;-69
2023/04/18 14:05:19;;;;;;;3.93;3.60;;;15.30;53.30;;;;;;6128024;23;20651;-70
2023/04/18 14:07:45;;;;;;;3.77;3.27;;;15.30;53.30;;;;;;6128036;23;20415;-70
2023/04/18 14:10:11;;;;;;;4.50;3.67;;;15.30;53.30;;;;;;6128035;23;20169;-69
2023/04/18 14:12:36;;;;;;;3.83;3.40;;;15.40;53.30;;;;;;6128189;23;20196;-70
2023/04/18 14:15:02;;;;;;;4.07;3.53;;;15.30;53.20;;;;;;6128199;23;20592;-70
2023/04/18 14:17:28;;;;;;;4.17;3.63;;;15.40;53.30;;;;;;6127712;23;20227;-69
2023/04/18 14:19:54;;;;;;;3.53;3.23;;;15.40;53.30;;;;;;6128083;23;20452;-71
2023/04/18 14:22:19;;;;;;;4.23;3.83;;;15.40;53.30;;;;;;6128354;23;20149;-71
2023/04/18 14:24:45;;;;;;;4.63;3.53;;;15.40;53.30;;;;;;6128374;23;20160;-70
2023/04/18 14:27:10;;;;;;;4.90;3.70;;;15.40;53.20;;;;;;6101952;23;20600;-71
2023/04/18 14:29:36;;;;;;;4.27;3.57;;;15.40;53.30;;;;;;6127599;23;20188;-70
2023/04/18 14:32:01;;;;;;;9.43;3.03;;;15.40;53.30;;;;;;6127870;23;20159;-71
2023/04/18 14:34:27;;;;;;;4.30;3.37;;;15.40;53.30;;;;;;6128403;23;20153;-71
2023/04/18 14:36:53;;;;;;;3.97;3.67;;;15.40;53.20;;;;;;6128105;23;20555;-70
2023/04/18 14:39:18;;;;;;;3.70;2.90;;;15.40;53.20;;;;;;6127989;23;20172;-72
2023/04/18 14:41:44;;;;;;;4.00;3.60;;;15.40;53.30;;;;;;6101589;23;20153;-67
2023/04/18 14:44:10;;;;;;;3.83;3.40;;;15.40;53.30;;;;;;6128003;23;20224;-68
2023/04/18 14:46:35;;;;;;;3.70;3.07;;;15.40;53.20;;;;;;6127719;23;20389;-68
2023/04/18 14:49:01;;;;;;;3.30;3.00;;;15.50;53.30;;;;;;6101537;23;20189;-68
2023/04/18 14:51:27;;;;;;;4.40;3.63;;;15.50;53.30;;;;;;6101567;23;20157;-68
2023/04/18 14:53:52;;;;;;;3.90;3.37;;;15.50;53.30;;;;;;6127988;23;20149;-68
2023/04/18 14:56:20;;;;;;;3.50;3.10;;;15.50;53.30;;;;;;6127662;23;20256;-67
2023/04/18 14:58:46;;;;;;;8.90;3.67;;;15.60;53.30;;;;;;6127504;23;20156;-70
2023/04/18 15:01:11;;;;;;;3.80;3.40;;;15.60;53.20;;;;;;6128098;23;20867;-68
2023/04/18 15:03:37;;;;;;;4.27;3.30;;;15.60;53.20;;;;;;6128117;23;20531;-71
2023/04/18 15:06:03;;;;;;;3.37;3.07;;;15.60;53.20;;;;;;6127983;23;20149;-71
2023/04/18 15:08:30;;;;;;;6.30;3.20;;;15.60;53.20;;;;;;6101996;23;20427;-71
2023/04/18 15:10:55;;;;;;;4.97;3.47;;;15.60;53.20;;;;;;6127901;23;20500;-69
2023/04/18 15:13:21;;;;;;;5.13;3.70;;;15.60;53.20;;;;;;6127621;23;20401;-72
2023/04/18 15:15:55;;;;;;;3.80;3.40;;;15.60;53.20;;;;;;6127314;23;20177;-67
2023/04/18 15:18:20;;;;;;;3.50;3.20;;;15.60;53.20;;;;;;6101268;23;20618;-68
2023/04/18 15:20:46;;;;;;;3.00;2.70;;;15.60;53.30;;;;;;6127652;23;20397;-72
2023/04/18 15:23:13;;;;;;;3.20;2.83;;;15.60;53.80;;;;;;6127823;23;20153;-72
2023/04/18 15:25:39;;;;;;;4.30;3.90;;;15.50;53.20;;;;;;6127807;23;20150;-68
2023/04/18 15:28:05;;;;;;;5.10;3.43;;;15.60;53.40;;;;;;6127444;23;20376;-68
2023/04/18 15:30:31;;;;;;;5.20;3.60;;;15.60;53.30;;;;;;6127754;23;20449;-64
2023/04/18 15:32:57;;;;;;;6.57;3.57;;;15.60;53.90;;;;;;6128730;23;20597;-64
2023/04/18 15:35:23;;;;;;;7.87;4.10;;;15.60;53.60;;;;;;6128973;23;20448;-64
2023/04/18 15:37:50;;;;;;;7.70;4.13;;;15.60;54.20;;;;;;6128528;23;20386;-64
2023/04/18 15:40:17;;;;;;;5.10;3.30;;;15.60;54.20;;;;;;6128336;23;20224;-64
2023/04/18 15:42:43;;;;;;;5.83;4.40;;;15.60;54.00;;;;;;6129543;23;20716;-63
2023/04/18 15:45:12;;;;;;;6.57;4.23;;;15.60;54.00;;;;;;6102834;23;20381;-66
2023/04/18 15:47:37;;;;;;;4.30;3.70;;;15.60;54.00;;;;;;6128914;23;20369;-66
2023/04/18 15:50:04;;;;;;;6.00;3.80;;;15.50;53.90;;;;;;6127259;23;20408;-65
2023/04/18 15:52:29;;;;;;;6.77;3.90;;;15.50;53.90;;;;;;6126989;23;20149;-70
2023/04/18 15:54:56;;;;;;;7.80;4.10;;;15.50;53.90;;;;;;6127282;23;20428;-65
2023/04/18 15:57:22;;;;;;;4.77;4.10;;;15.50;54.00;;;;;;6127176;23;20181;-65
2023/04/18 15:59:48;;;;;;;11.60;4.80;;;15.50;53.90;;;;;;6127619;23;20761;-66
2023/04/18 16:02:13;;;;;;;6.03;4.20;;;15.50;54.00;;;;;;6127559;23;20603;-66
2023/04/18 16:04:39;;;;;;;8.37;4.57;;;15.50;54.00;;;;;;6127086;23;20467;-71
2023/04/18 16:07:08;;;;;;;8.17;4.00;;;15.50;54.10;;;;;;6127096;23;20175;-64
2023/04/18 16:09:33;;;;;;;6.00;4.60;;;15.50;54.10;;;;;;6127462;23;20149;-69
2023/04/18 16:12:00;;;;;;;15.90;5.63;;;15.50;54.10;;;;;;6126381;23;20381;-65
2023/04/18 16:14:25;;;;;;;11.87;5.93;;;15.50;54.50;;;;;;6127260;23;20157;-65
2023/04/18 16:16:52;;;;;;;16.57;7.20;;;15.50;54.80;;;;;;6127456;23;20475;-66
2023/04/18 16:19:18;;;;;;;13.83;7.63;;;15.40;55.00;;;;;;6100629;23;20530;-71
2023/04/18 16:21:45;;;;;;;13.13;7.93;;;15.50;56.40;;;;;;6126729;23;20369;-71
2023/04/18 16:24:13;;;;;;;11.47;8.50;;;15.40;56.00;;;;;;6126567;23;20153;-65
2023/04/18 16:26:38;;;;;;;14.13;7.83;;;15.40;56.10;;;;;;6126564;23;20774;-70
2023/04/18 16:29:04;;;;;;;15.77;8.50;;;15.50;56.90;;;;;;6126772;23;20431;-70
2023/04/18 16:31:30;;;;;;;15.60;8.07;;;15.50;57.00;;;;;;6126406;23;20645;-71
2023/04/18 16:33:55;;;;;;;17.30;8.80;;;15.50;56.80;;;;;;6126812;23;20292;-71
2023/04/18 16:36:21;;;;;;;22.37;8.03;;;15.50;56.50;;;;;;6126497;23;20194;-71
2023/04/18 16:38:47;;;;;;;15.60;7.73;;;15.50;56.40;;;;;;6126426;23;20192;-72
2023/04/18 16:41:12;;;;;;;14.63;7.57;;;15.50;56.40;;;;;;6126547;23;20165;-71
2023/04/18 16:43:38;;;;;;;12.73;8.13;;;15.50;56.30;;;;;;6126853;23;20168;-66
2023/04/18 16:46:03;;;;;;;13.30;8.20;;;15.50;56.30;;;;;;6101116;23;20439;-66
2023/04/18 16:48:29;;;;;;;13.60;8.07;;;15.50;56.20;;;;;;6127041;23;20156;-65
2023/04/18 16:50:55;;;;;;;13.20;7.67;;;15.40;56.20;;;;;;6100423;23;20188;-65
2023/04/18 16:53:22;;;;;;;14.50;7.90;;;15.40;56.40;;;;;;6126750;23;20171;-66
2023/04/18 16:55:49;;;;;;;14.20;7.47;;;15.40;56.60;;;;;;6126687;23;20790;-65
2023/04/18 16:58:15;;;;;;;14.73;6.90;;;15.40;56.40;;;;;;6126948;23;20403;-65
2023/04/18 17:00:41;;;;;;;17.33;7.53;;;15.40;56.60;;;;;;6126445;23;20420;-65
2023/04/18 17:03:08;;;;;;;12.00;7.70;;;15.40;56.40;;;;;;6126774;23;20373;-66
2023/04/18 17:05:38;;;;;;;17.10;8.50;;;15.40;56.50;;;;;;6126402;23;20160;-65
2023/04/18 17:08:04;;;;;;;17.77;7.73;;;15.40;56.50;;;;;;6126487;23;20377;-65
2023/04/18 17:10:30;;;;;;;10.00;7.20;;;15.40;56.40;;;;;;6127385;23;20886;-66
2023/04/18 17:12:56;;;;;;;13.63;8.20;;;15.40;56.40;;;;;;6126727;23;20379;-66
2023/04/18 17:15:21;;;;;;;14.73;7.57;;;15.40;56.40;;;;;;6126848;23;20159;-66
2023/04/18 17:17:47;;;;;;;16.30;7.37;;;15.40;56.50;;;;;;6127480;23;20751;-66
2023/04/18 17:20:14;;;;;;;11.03;7.10;;;15.40;56.40;;;;;;6126750;23;20181;-66
2023/04/18 17:22:40;;;;;;;13.53;8.17;;;15.40;56.50;;;;;;6126973;23;20160;-65
2023/04/18 17:25:06;;;;;;;13.30;7.53;;;15.40;56.80;;;;;;6128553;23;20850;-65
2023/04/18 17:27:32;;;;;;;9.50;6.27;;;15.40;56.70;;;;;;6128664;23;20161;-64
2023/04/18 17:29:58;;;;;;;12.40;7.47;;;15.40;56.50;;;;;;6128015;23;20415;-66
2023/04/18 17:32:23;;;;;;;11.10;7.33;;;15.40;56.50;;;;;;6128646;23;20141;-66
2023/04/18 17:34:49;;;;;;;12.20;7.27;;;15.40;56.60;;;;;;6128903;23;20172;-64
2023/04/18 17:37:15;;;;;;;10.50;7.20;;;15.40;56.50;;;;;;6128265;23;20173;-64
2023/04/18 17:39:42;;;;;;;11.63;6.60;;;15.40;56.40;;;;;;6128351;23;20186;-66
2023/04/18 17:42:08;;;;;;;12.40;6.57;;;15.40;56.60;;;;;;6128237;23;20412;-65
2023/04/18 17:44:33;;;;;;;12.50;7.67;;;15.40;56.70;;;;;;6128269;23;20383;-65
2023/04/18 17:47:00;;;;;;;11.57;7.30;;;15.40;56.60;;;;;;6128546;23;20404;-66
2023/04/18 17:49:33;;;;;;;9.63;5.67;;;15.40;56.60;;;;;;6128017;23;20599;-65
2023/04/18 17:51:59;;;;;;;7.70;6.00;;;15.50;56.70;;;;;;6128237;23;20356;-64
2023/04/18 17:54:24;;;;;;;10.27;8.13;;;15.40;56.90;;;;;;6128448;23;20690;-65
2023/04/18 17:56:50;;;;;;;10.53;6.40;;;15.40;56.80;;;;;;6128028;23;20422;-65
2023/04/18 17:59:16;;;;;;;8.10;6.33;;;15.40;56.80;;;;;;6128549;23;20165;-65
2023/04/18 18:01:41;;;;;;;10.00;6.60;;;15.50;56.70;;;;;;6128463;23;20584;-65
2023/04/18 18:04:07;;;;;;;11.50;6.60;;;15.50;56.70;;;;;;6128174;23;20153;-66
2023/04/18 18:06:33;;;;;;;9.17;6.27;;;15.40;56.70;;;;;;6128351;23;20164;-65
2023/04/18 18:08:59;;;;;;;9.50;7.60;;;15.50;56.70;;;;;;6128009;23;20729;-65
2023/04/18 18:11:26;;;;;;;9.67;7.20;;;15.40;57.40;;;;;;6127883;23;20428;-64
2023/04/18 18:13:54;;;;;;;8.77;6.43;;;15.40;57.30;;;;;;6127837;23;20160;-64
2023/04/18 18:16:20;;;;;;;11.27;7.87;;;15.50;57.20;;;;;;6101801;23;20420;-64
2023/04/18 18:18:46;;;;;;;8.43;6.70;;;15.50;57.00;;;;;;6128163;23;20388;-64
2023/04/18 18:21:11;;;;;;;9.10;6.83;;;15.50;56.80;;;;;;6127902;23;20397;-64
2023/04/18 18:23:37;;;;;;;9.43;6.87;;;15.40;56.70;;;;;;6127991;23;20152;-62
2023/04/18 18:26:05;;;;;;;12.23;7.67;;;15.40;56.70;;;;;;6128040;23;20208;-65
2023/04/18 18:28:31;;;;;;;10.83;6.90;;;15.40;56.60;;;;;;6127841;23;20177;-64
2023/04/18 18:30:56;;;;;;;7.50;5.97;;;15.40;56.60;;;;;;6127390;23;20791;-64
2023/04/18 18:33:22;;;;;;;14.00;7.47;;;15.40;56.80;;;;;;6127591;23;20149;-65
2023/04/18 18:35:47;;;;;;;8.50;6.37;;;15.40;56.80;;;;;;6127238;23;20180;-64
2023/04/18 18:38:13;;;;;;;10.97;6.83;;;15.40;56.80;;;;;;6127768;23;20153;-64
2023/04/18 18:40:39;;;;;;;6.90;5.80;;;15.40;56.80;;;;;;6127777;23;20168;-64
2023/04/18 18:43:04;;;;;;;10.20;6.60;;;15.40;56.80;;;;;;6127766;23;20156;-64
2023/04/18 18:45:30;;;;;;;12.13;6.60;;;15.40;56.70;;;;;;6127471;23;20173;-64
2023/04/18 18:47:55;;;;;;;10.50;6.43;;;15.40;56.60;;;;;;6077671;23;20153;-63
2023/04/18 18:50:21;;;;;;;8.77;6.10;;;15.40;56.60;;;;;;6127313;23;20173;-64
2023/04/18 18:52:46;;;;;;;10.67;6.50;;;15.40;56.60;;;;;;6127355;23;20159;-64
2023/04/18 18:55:12;;;;;;;10.47;6.10;;;15.40;56.60;;;;;;6127333;23;20145;-64
2023/04/18 18:57:38;;;;;;;8.43;6.30;;;15.40;56.60;;;;;;6101565;23;20268;-64
2023/04/18 19:00:10;;;;;;;11.33;6.20;;;15.40;56.60;;;;;;6127625;23;20253;-63
2023/04/18 19:02:37;;;;;;;9.30;6.10;;;15.40;56.60;;;;;;6127883;23;20142;-62
2023/04/18 19:05:02;;;;;;;10.37;5.73;;;15.40;56.50;;;;;;6127332;23;20373;-64
2023/04/18 19:07:28;;;;;;;8.83;6.90;;;15.40;56.50;;;;;;6102211;23;20832;-65
2023/04/18 19:09:54;;;;;;;10.40;6.23;;;15.40;56.50;;;;;;6127275;23;20173;-65
2023/04/18 19:12:20;;;;;;;10.47;6.93;;;15.40;56.50;;;;;;6102057;23;20156;-64
2023/04/18 19:14:45;;;;;;;8.23;6.37;;;15.40;56.50;;;;;;6128039;23;20154;-64
2023/04/18 19:17:11;;;;;;;7.60;5.80;;;15.40;56.50;;;;;;6127503;23;20172;-64
2023/04/18 19:19:37;;;;;;;9.13;5.87;;;15.40;56.50;;;;;;6101179;23;20173;-63
2023/04/18 19:22:03;;;;;;;8.10;6.13;;;15.40;56.40;;;;;;6127103;23;20373;-65
2023/04/18 19:24:30;;;;;;;9.37;6.07;;;15.40;56.40;;;;;;6127245;23;20534;-64
2023/04/18 19:26:56;;;;;;;7.33;5.20;;;15.40;56.60;;;;;;6127029;23;20165;-62
2023/04/18 19:29:21;;;;;;;9.20;6.20;;;15.40;56.50;;;;;;6077153;23;20456;-64
2023/04/18 19:31:47;;;;;;;8.77;6.50;;;15.40;56.50;;;;;;6127535;23;20564;-71
2023/04/18 19:34:13;;;;;;;10.20;6.50;;;15.40;56.50;;;;;;6127372;23;20525;-70
2023/04/18 19:36:38;;;;;;;10.23;5.80;;;15.40;56.40;;;;;;6127235;23;20177;-70
2023/04/18 19:39:04;;;;;;;8.43;6.00;;;15.40;56.40;;;;;;6127455;23;20153;-71
2023/04/18 19:41:30;;;;;;;7.80;5.30;;;15.30;56.40;;;;;;6127054;23;20611;-71
2023/04/18 19:43:55;;;;;;;8.30;5.60;;;15.40;56.40;;;;;;6127484;23;20165;-71
2023/04/18 19:46:21;;;;;;;7.27;5.43;;;15.30;56.50;;;;;;6126875;23;20481;-71
2023/04/18 19:48:47;;;;;;;7.67;5.40;;;15.30;56.30;;;;;;6101457;23;20153;-71
2023/04/18 19:51:12;;;;;;;7.00;5.40;;;15.30;56.30;;;;;;6126960;23;20463;-71
2023/04/18 19:53:38;;;;;;;7.43;5.40;;;15.30;56.40;;;;;;6127030;23;20157;-71
2023/04/18 19:56:03;;;;;;;5.47;4.93;;;15.30;56.40;;;;;;6127261;23;20169;-71